createdAt,value
2022-09-12T07:18:11.906Z,18.89
2022-09-12T07:19:13.273Z,18.83
2022-09-12T07:20:14.821Z,18.83
2022-09-12T07:21:16.216Z,18.82
2022-09-12T07:22:17.566Z,18.93
2022-09-12T07:23:19.132Z,18.89
2022-09-12T07:24:20.591Z,18.95
2022-09-12T07:40:00.343Z,19.35
2022-09-12T07:41:01.818Z,19.77
2022-09-12T07:42:03.363Z,20.05
2022-09-12T07:43:05.001Z,20.12
2022-09-12T07:44:09.196Z,20.51
2022-09-12T07:45:11.251Z,20.37
2022-09-12T07:46:14.195Z,20.48
2022-09-12T07:56:06.124Z,20.84
2022-09-12T07:57:07.548Z,20.69
2022-09-12T07:58:08.880Z,21.10
2022-09-12T07:59:10.254Z,21.71
2022-09-12T08:00:12.105Z,21.18
2022-09-12T08:01:19.340Z,20.96
2022-09-12T08:02:21.566Z,21.22
2022-09-12T08:03:23.019Z,21.43
2022-09-12T08:04:24.550Z,21.00
2022-09-12T08:05:25.929Z,21.25
2022-09-12T08:06:31.399Z,21.73
2022-09-12T08:07:34.039Z,21.71
2022-09-12T08:08:36.410Z,22.42
2022-09-12T08:09:37.839Z,23.10
2022-09-12T08:10:39.328Z,23.10
2022-09-12T08:11:40.657Z,22.35
2022-09-12T08:12:42.078Z,21.13
2022-09-12T08:13:44.875Z,21.48
2022-09-12T08:14:46.605Z,22.02
2022-09-12T08:15:48.011Z,21.30
2022-09-12T08:16:49.402Z,21.93
2022-09-12T08:17:50.754Z,21.49
2022-09-12T08:18:52.100Z,20.67
2022-09-12T08:19:53.729Z,20.53
2022-09-12T08:20:59.525Z,21.24
2022-09-12T08:22:00.862Z,20.75
2022-09-12T08:23:02.271Z,20.82
2022-09-12T08:24:05.960Z,21.25
2022-09-12T08:25:08.620Z,21.09
2022-09-12T08:26:11.864Z,21.33
2022-09-12T08:27:14.745Z,21.20
2022-09-12T08:28:16.453Z,21.50
2022-09-12T08:29:17.969Z,21.20
2022-09-12T08:30:19.308Z,21.69
2022-09-12T08:31:23.087Z,21.86
2022-09-12T08:32:24.749Z,22.07
2022-09-12T08:33:27.308Z,22.28
2022-09-12T08:34:28.684Z,21.84
2022-09-12T08:35:30.196Z,21.62
2022-09-12T08:36:32.480Z,21.46
2022-09-12T08:37:33.860Z,21.17
2022-09-12T08:38:36.534Z,21.10
2022-09-12T08:39:37.887Z,20.73
2022-09-12T08:41:05.347Z,20.42
2022-09-12T08:42:07.250Z,20.05
2022-09-12T08:43:32.874Z,20.04
2022-09-12T08:45:02.218Z,20.41
2022-09-12T08:46:19.997Z,20.59
2022-09-12T08:47:38.849Z,20.22
2022-09-12T08:48:41.579Z,20.37
2022-09-12T08:50:05.036Z,20.14
2022-09-12T08:51:12.346Z,20.56
2022-09-12T08:52:22.184Z,20.34
2022-09-12T08:53:26.009Z,20.50
2022-09-12T08:54:29.434Z,20.15
2022-09-12T08:55:41.148Z,20.85
2022-09-12T08:56:43.373Z,20.78
2022-09-12T08:57:44.710Z,20.77
2022-09-12T08:58:46.391Z,20.74
2022-09-12T08:59:48.350Z,20.61
2022-09-12T09:01:21.284Z,20.22
2022-09-12T09:02:57.595Z,20.34
2022-09-12T09:04:04.679Z,20.24
2022-09-12T09:14:41.790Z,20.39
2022-09-12T09:16:02.118Z,20.45
2022-09-12T09:17:08.666Z,20.45
2022-09-12T09:18:23.870Z,20.96
2022-09-12T09:19:34.235Z,21.00
2022-09-12T09:21:07.892Z,20.44
2022-09-12T09:22:23.483Z,21.10
2022-09-12T09:23:33.915Z,20.79
2022-09-12T09:31:41.325Z,21.17
2022-09-12T09:32:47.599Z,21.53
2022-09-12T09:33:51.514Z,21.12
2022-09-12T09:34:53.180Z,21.47
2022-09-12T09:36:20.098Z,21.53
2022-09-12T09:37:30.034Z,21.90
2022-09-12T09:38:59.822Z,22.22
2022-09-12T09:40:29.089Z,21.53
2022-09-12T09:41:37.347Z,21.47
2022-09-12T09:42:43.812Z,21.20
2022-09-12T09:50:17.029Z,21.33
2022-09-12T09:51:24.750Z,21.76
2022-09-12T09:52:30.454Z,21.37
2022-09-12T09:53:51.667Z,21.40
2022-09-12T09:54:58.533Z,22.25
2022-09-12T09:56:03.697Z,22.35
2022-09-12T09:57:05.233Z,22.89
2022-09-12T09:58:06.743Z,23.05
2022-09-12T09:59:14.760Z,22.91
2022-09-12T10:00:27.104Z,23.33
2022-09-12T10:01:28.803Z,23.53
2022-09-12T10:02:30.206Z,23.60
2022-09-12T10:03:35.911Z,23.79
2022-09-12T10:04:41.841Z,24.31
2022-09-12T10:05:49.383Z,24.10
2022-09-12T10:13:35.506Z,25.14
2022-09-12T10:14:41.857Z,25.40
2022-09-12T10:15:57.597Z,25.63
2022-09-12T10:16:59.476Z,25.29
2022-09-12T10:18:02.846Z,24.98
2022-09-12T10:19:04.299Z,24.92
2022-09-12T10:20:34.668Z,26.00
2022-09-12T10:21:47.583Z,26.63
2022-09-12T10:22:49.552Z,25.76
2022-09-12T10:23:59.941Z,25.06
2022-09-12T10:25:01.742Z,23.96
2022-09-12T10:26:09.498Z,24.51
2022-09-12T10:27:13.601Z,25.10
2022-09-12T10:28:27.744Z,23.70
2022-09-12T10:29:33.301Z,24.28
2022-09-12T10:30:34.961Z,24.85
2022-09-12T10:32:01.229Z,25.14
2022-09-12T10:33:12.753Z,24.41
2022-09-12T10:34:25.265Z,25.27
2022-09-12T10:41:11.683Z,25.37
2022-09-12T10:42:17.518Z,25.28
2022-09-12T10:43:39.557Z,26.81
2022-09-12T10:44:54.026Z,27.00
2022-09-12T10:46:19.695Z,25.91
2022-09-12T10:47:28.083Z,25.68
2022-09-12T10:48:31.646Z,26.00
2022-09-12T10:49:39.974Z,26.12
2022-09-12T10:50:43.052Z,26.38
2022-09-12T10:51:44.413Z,25.84
2022-09-12T10:52:45.825Z,25.15
2022-09-12T10:53:47.355Z,25.23
2022-09-12T10:54:50.235Z,25.22
2022-09-12T10:56:14.260Z,25.06
2022-09-12T10:57:46.002Z,25.55
2022-09-12T10:58:53.667Z,26.41
2022-09-12T11:00:17.821Z,25.88
2022-09-12T11:01:39.587Z,26.31
2022-09-12T11:03:07.012Z,25.32
2022-09-12T11:04:30.421Z,26.71
2022-09-12T11:05:49.978Z,26.68
2022-09-12T11:07:10.316Z,26.03
2022-09-12T11:08:36.622Z,28.10
2022-09-12T11:09:46.006Z,27.69
2022-09-12T11:10:59.605Z,28.45
2022-09-12T11:12:29.872Z,27.89
2022-09-12T11:13:31.265Z,28.12
2022-09-12T11:14:41.543Z,26.19
2022-09-12T11:16:01.149Z,25.52
2022-09-12T11:17:22.886Z,26.64
2022-09-12T11:18:33.206Z,27.16
2022-09-12T11:19:59.448Z,27.47
2022-09-12T11:21:13.671Z,28.84
2022-09-12T11:22:33.617Z,26.96
2022-09-12T11:23:40.744Z,27.58
2022-09-12T11:25:11.925Z,26.81
2022-09-12T11:26:28.945Z,26.39
2022-09-12T11:27:53.532Z,26.65
2022-09-12T11:28:57.781Z,26.91
2022-09-12T11:30:13.177Z,27.23
2022-09-12T11:31:33.878Z,28.43
2022-09-12T11:32:43.555Z,28.78
2022-09-12T11:33:47.979Z,29.02
2022-09-12T11:35:15.160Z,27.10
2022-09-12T11:36:33.043Z,26.61
2022-09-12T11:38:11.647Z,26.74
2022-09-12T11:39:38.450Z,28.44
2022-09-12T11:40:59.634Z,29.11
2022-09-12T11:48:37.598Z,29.55
2022-09-12T11:49:51.478Z,28.38
2022-09-12T11:50:53.146Z,29.22
2022-09-12T11:52:18.249Z,29.77
2022-09-12T11:53:26.590Z,28.89
2022-09-12T11:54:35.377Z,28.33
2022-09-12T11:55:47.390Z,28.11
2022-09-12T11:56:55.592Z,28.49
2022-09-12T11:58:00.979Z,28.17
2022-09-12T11:59:11.303Z,28.42
2022-09-12T12:00:26.609Z,28.71
2022-09-12T12:07:11.434Z,28.24
2022-09-12T12:08:14.522Z,27.42
2022-09-12T12:09:16.199Z,27.31
2022-09-12T12:10:36.780Z,26.10
2022-09-12T12:11:43.554Z,27.71
2022-09-12T12:12:45.032Z,27.09
2022-09-12T12:14:01.690Z,26.72
2022-09-12T12:15:03.359Z,27.30
2022-09-12T12:16:11.603Z,27.12
2022-09-12T12:22:34.202Z,29.04
2022-09-12T12:23:36.472Z,29.29
2022-09-12T12:24:55.033Z,29.54
2022-09-12T12:25:58.750Z,29.36
2022-09-12T12:27:03.237Z,29.70
2022-09-12T12:28:06.348Z,28.82
2022-09-12T12:29:16.750Z,29.21
2022-09-12T12:30:30.368Z,29.86
2022-09-12T12:36:40.396Z,26.66
2022-09-12T12:37:41.737Z,26.31
2022-09-12T12:38:43.504Z,27.92
2022-09-12T12:39:45.916Z,28.80
2022-09-12T12:40:47.459Z,28.19
2022-09-12T12:41:48.803Z,28.94
2022-09-12T12:43:01.456Z,28.25
2022-09-12T12:44:41.599Z,27.95
2022-09-12T12:45:48.303Z,28.47
2022-09-12T12:52:03.390Z,27.32
2022-09-12T12:53:27.756Z,26.38
2022-09-12T12:54:41.266Z,27.73
2022-09-12T12:55:42.548Z,26.66
2022-09-12T12:56:44.136Z,26.56
2022-09-12T12:57:52.440Z,27.78
2022-09-12T12:59:00.500Z,27.78
2022-09-12T13:04:55.976Z,29.16
2022-09-12T13:06:07.216Z,29.73
2022-09-12T13:07:12.198Z,29.83
2022-09-12T13:08:19.782Z,29.26
2022-09-12T13:09:21.468Z,29.60
2022-09-12T13:10:29.242Z,29.87
2022-09-12T13:11:35.918Z,28.15
2022-09-12T13:17:44.010Z,29.38
2022-09-12T13:18:49.068Z,29.09
2022-09-12T13:20:16.934Z,29.22
2022-09-12T13:21:21.699Z,29.25
2022-09-12T13:22:24.690Z,29.24
2022-09-12T13:23:29.295Z,29.35
2022-09-12T13:29:29.390Z,28.66
2022-09-12T13:30:33.617Z,28.96
2022-09-12T13:31:35.024Z,28.82
2022-09-12T13:32:36.369Z,29.00
2022-09-12T13:33:48.280Z,29.00
2022-09-12T13:35:11.120Z,28.61
2022-09-12T13:41:07.978Z,29.64
2022-09-12T13:42:37.645Z,28.61
2022-09-12T13:43:47.293Z,28.90
2022-09-12T13:44:52.886Z,28.19
2022-09-12T13:45:54.330Z,27.84
2022-09-12T13:47:00.806Z,28.08
2022-09-12T13:52:59.617Z,27.70
2022-09-12T13:54:05.113Z,28.07
2022-09-12T13:55:24.555Z,28.24
2022-09-12T13:56:26.234Z,28.14
2022-09-12T13:57:31.084Z,28.63
2022-09-12T13:58:36.877Z,28.78
2022-09-12T14:04:46.406Z,28.96
2022-09-12T14:05:57.348Z,28.40
2022-09-12T14:07:02.008Z,28.32
2022-09-12T14:08:08.542Z,28.23
2022-09-12T14:09:15.135Z,28.25
2022-09-12T14:10:22.723Z,28.74
2022-09-12T14:11:27.749Z,29.03
2022-09-12T14:12:37.059Z,29.25
2022-09-12T14:13:39.213Z,29.45
2022-09-12T14:14:43.915Z,29.89
2022-09-12T14:15:48.428Z,30.17
2022-09-12T14:16:50.230Z,30.60
2022-09-12T14:18:01.346Z,29.55
2022-09-12T14:19:02.769Z,28.81
2022-09-12T14:20:14.312Z,28.73
2022-09-12T14:21:36.897Z,27.40
2022-09-12T14:22:38.768Z,27.24
2022-09-12T14:28:31.097Z,27.67
2022-09-12T14:29:34.612Z,28.21
2022-09-12T14:30:37.652Z,28.36
2022-09-12T14:31:39.432Z,27.90
2022-09-12T14:32:40.808Z,27.36
2022-09-12T14:33:56.800Z,28.47
2022-09-12T14:35:20.383Z,28.49
2022-09-12T14:36:24.632Z,28.14
2022-09-12T14:42:13.144Z,28.48
2022-09-12T14:43:19.441Z,28.69
2022-09-12T14:44:26.895Z,28.82
2022-09-12T14:45:30.875Z,29.06
2022-09-12T14:46:35.491Z,29.31
2022-09-12T14:47:40.657Z,29.36
2022-09-12T14:49:10.416Z,29.38
2022-09-12T14:55:19.811Z,29.45
2022-09-12T14:56:23.047Z,28.90
2022-09-12T14:57:39.386Z,29.00
2022-09-12T14:58:42.187Z,27.81
2022-09-12T14:59:43.562Z,27.58
2022-09-12T15:01:01.838Z,26.59
2022-09-12T15:06:51.163Z,26.56
2022-09-12T15:07:58.471Z,27.36
2022-09-12T15:09:11.880Z,27.75
2022-09-12T15:10:29.245Z,28.01
2022-09-12T15:11:30.663Z,28.45
2022-09-12T15:12:32.021Z,28.28
2022-09-12T15:13:40.594Z,28.19
2022-09-12T15:14:41.932Z,28.57
2022-09-12T15:15:46.430Z,28.57
2022-09-12T15:16:47.792Z,28.81
2022-09-12T15:17:49.116Z,28.90
2022-09-12T15:18:50.430Z,29.45
2022-09-12T15:19:51.750Z,29.93
2022-09-12T15:20:57.800Z,30.06
2022-09-12T15:21:59.377Z,27.85
2022-09-12T15:23:00.739Z,28.38
2022-09-12T15:24:02.518Z,29.44
2022-09-12T15:25:04.864Z,28.37
2022-09-12T15:26:07.498Z,27.52
2022-09-12T15:27:12.459Z,27.36
2022-09-12T15:28:20.301Z,27.15
2022-09-12T15:29:21.770Z,26.67
2022-09-12T15:30:23.085Z,26.59
2022-09-12T15:31:29.734Z,26.67
2022-09-12T15:32:31.340Z,26.50
2022-09-12T15:33:32.869Z,26.42
2022-09-12T15:34:34.196Z,26.81
2022-09-12T15:35:35.562Z,26.21
2022-09-12T15:36:36.970Z,25.99
2022-09-12T15:37:38.431Z,26.62
2022-09-12T15:38:39.753Z,27.24
2022-09-12T15:39:41.170Z,27.62
2022-09-12T15:40:42.873Z,27.90
2022-09-12T15:41:44.230Z,28.06
2022-09-12T15:42:45.632Z,28.48
2022-09-12T15:43:47.634Z,28.51
2022-09-12T15:44:49.230Z,28.62
2022-09-12T15:45:51.764Z,28.93
2022-09-12T15:46:53.170Z,29.04
2022-09-12T15:47:55.083Z,27.98
2022-09-12T15:48:56.667Z,28.28
2022-09-12T15:49:58.002Z,28.63
2022-09-12T15:51:04.513Z,28.38
2022-09-12T15:52:07.469Z,27.73
2022-09-12T15:53:15.151Z,28.11
2022-09-12T15:54:18.056Z,27.81
2022-09-12T15:55:23.769Z,27.51
2022-09-12T15:56:26.178Z,27.25
2022-09-12T15:57:27.497Z,26.87
2022-09-12T15:58:29.594Z,26.22
2022-09-12T15:59:31.093Z,26.01
2022-09-12T16:00:32.441Z,26.64
2022-09-12T16:01:33.881Z,26.35
2022-09-12T16:02:35.496Z,25.64
2022-09-12T16:03:37.006Z,25.76
2022-09-12T16:04:38.554Z,25.73
2022-09-12T16:05:40.082Z,25.95
2022-09-12T16:06:41.417Z,26.31
2022-09-12T16:07:44.233Z,26.08
2022-09-12T16:08:46.076Z,25.25
2022-09-12T16:09:47.716Z,25.21
2022-09-12T16:10:54.129Z,25.44
2022-09-12T16:11:55.495Z,25.47
2022-09-12T16:12:57.505Z,25.43
2022-09-12T16:13:58.940Z,25.26
2022-09-12T16:15:00.386Z,25.01
2022-09-12T16:16:02.063Z,25.50
2022-09-12T16:17:03.565Z,25.41
2022-09-12T16:18:04.898Z,25.13
2022-09-12T16:19:06.644Z,25.31
2022-09-12T16:20:08.972Z,25.09
2022-09-12T16:21:14.917Z,25.03
2022-09-12T16:22:16.936Z,24.69
2022-09-12T16:23:18.518Z,24.63
2022-09-12T16:24:19.960Z,24.60
2022-09-12T16:42:26.040Z,23.47
2022-09-12T16:43:27.399Z,23.28
2022-09-12T16:44:34.982Z,23.33
2022-09-12T16:45:36.456Z,23.38
2022-09-12T16:46:38.020Z,23.33
2022-09-12T17:00:16.756Z,22.65
2022-09-12T17:01:23.659Z,22.80
2022-09-12T17:02:25.489Z,22.74
2022-09-12T17:03:27.437Z,22.70
2022-09-12T17:04:28.865Z,22.83
2022-09-12T17:05:30.485Z,22.71
2022-09-12T17:06:33.799Z,23.09
